createdAt,value
2022-08-23T00:01:18.235Z,31.94
2022-08-23T00:03:47.885Z,31.70
2022-08-23T00:06:14.459Z,32.19
2022-08-23T00:08:44.797Z,32.02
2022-08-23T00:11:29.087Z,32.22
2022-08-23T00:13:56.142Z,32.23
2022-08-23T00:16:22.729Z,32.49
2022-08-23T00:18:49.638Z,32.45
2022-08-23T00:21:16.846Z,32.64
2022-08-23T00:23:43.480Z,32.24
2022-08-23T00:26:10.051Z,32.30
2022-08-23T00:28:36.587Z,32.62
2022-08-23T00:31:03.342Z,32.39
2022-08-23T00:33:29.869Z,32.81
2022-08-23T00:35:56.419Z,32.72
2022-08-23T00:38:33.893Z,32.60
2022-08-23T00:41:01.309Z,32.69
2022-08-23T00:43:48.931Z,33.13
2022-08-23T00:46:34.198Z,33.46
2022-08-23T00:49:03.676Z,33.30
2022-08-23T00:51:43.099Z,33.15
2022-08-23T00:54:19.949Z,33.25
2022-08-23T00:56:46.757Z,33.19
2022-08-23T00:59:13.379Z,33.43
2022-08-23T01:01:40.115Z,33.44
2022-08-23T01:04:07.196Z,33.48
2022-08-23T01:06:40.293Z,33.43
2022-08-23T01:09:09.289Z,33.27
2022-08-23T01:12:02.131Z,33.57
2022-08-23T01:14:34.706Z,33.51
2022-08-23T01:17:11.340Z,33.67
2022-08-23T01:19:39.833Z,33.67
2022-08-23T01:22:25.244Z,33.46
2022-08-23T01:25:07.190Z,34.07
2022-08-23T01:27:38.473Z,34.04
2022-08-23T01:30:10.014Z,34.09
2022-08-23T01:32:40.905Z,33.83
2022-08-23T01:35:07.700Z,34.09
2022-08-23T01:37:34.863Z,34.04
2022-08-23T01:40:01.799Z,33.94
2022-08-23T01:42:28.957Z,33.81
2022-08-23T01:44:56.040Z,34.06
2022-08-23T01:47:22.734Z,33.96
2022-08-23T01:49:49.306Z,33.56
2022-08-23T01:52:16.215Z,34.03
2022-08-23T01:54:43.353Z,33.60
2022-08-23T01:57:11.030Z,33.60
2022-08-23T01:59:38.339Z,33.66
2022-08-23T02:02:05.224Z,33.81
2022-08-23T02:04:31.880Z,33.79
2022-08-23T02:06:58.648Z,33.88
2022-08-23T02:09:25.574Z,34.14
2022-08-23T02:11:55.166Z,33.78
2022-08-23T02:14:21.988Z,34.13
2022-08-23T02:17:03.287Z,34.25
2022-08-23T02:19:37.596Z,34.33
2022-08-23T02:22:05.478Z,34.25
2022-08-23T02:24:32.531Z,33.98
2022-08-23T02:27:02.013Z,34.18
2022-08-23T02:29:30.388Z,33.98
2022-08-23T02:31:59.977Z,34.28
2022-08-23T02:34:28.107Z,34.05
2022-08-23T02:36:54.933Z,34.65
2022-08-23T02:39:22.802Z,34.37
2022-08-23T02:41:49.850Z,34.49
2022-08-23T02:44:19.092Z,34.57
2022-08-23T02:46:46.128Z,35.00
2022-08-23T02:49:13.474Z,34.88
2022-08-23T02:51:40.366Z,35.14
2022-08-23T02:54:07.289Z,34.70
2022-08-23T02:56:34.541Z,35.01
2022-08-23T02:59:01.364Z,35.18
2022-08-23T03:01:30.376Z,34.94
2022-08-23T03:04:03.700Z,35.34
2022-08-23T03:06:30.424Z,35.13
2022-08-23T03:08:57.585Z,35.40
2022-08-23T03:11:25.165Z,35.41
2022-08-23T03:13:54.028Z,34.97
2022-08-23T03:16:20.706Z,35.36
2022-08-23T03:18:48.481Z,35.42
2022-08-23T03:21:15.754Z,35.43
2022-08-23T03:23:43.629Z,35.65
2022-08-23T03:26:12.232Z,35.79
2022-08-23T03:28:40.111Z,36.22
2022-08-23T03:31:08.643Z,36.21
2022-08-23T03:33:43.680Z,36.33
2022-08-23T03:36:12.367Z,36.50
2022-08-23T03:38:39.919Z,36.15
2022-08-23T03:41:09.029Z,36.35
2022-08-23T03:43:36.076Z,36.45
2022-08-23T03:46:02.814Z,36.76
2022-08-23T03:48:30.293Z,36.85
2022-08-23T03:50:56.872Z,37.09
2022-08-23T03:53:24.156Z,37.27
2022-08-23T03:55:53.295Z,37.06
2022-08-23T03:58:21.471Z,37.23
2022-08-23T04:00:48.080Z,37.49
2022-08-23T04:03:14.903Z,37.35
2022-08-23T04:05:59.694Z,37.37
2022-08-23T04:08:33.498Z,37.41
2022-08-23T04:11:02.693Z,37.37
2022-08-23T04:13:29.618Z,37.86
2022-08-23T04:15:57.010Z,37.44
2022-08-23T04:18:24.007Z,37.82
2022-08-23T04:20:51.172Z,38.11
2022-08-23T04:23:21.502Z,38.50
2022-08-23T04:25:53.780Z,38.08
2022-08-23T04:28:22.197Z,38.07
2022-08-23T04:30:49.620Z,38.13
2022-08-23T04:33:18.242Z,38.25
2022-08-23T04:35:45.811Z,38.02
2022-08-23T04:38:24.325Z,38.61
2022-08-23T04:41:14.019Z,38.71
2022-08-23T04:43:41.462Z,38.54
2022-08-23T04:46:10.236Z,39.11
2022-08-23T04:48:37.006Z,38.94
2022-08-23T04:51:03.831Z,39.43
2022-08-23T04:53:35.406Z,39.31
2022-08-23T04:56:20.524Z,39.47
2022-08-23T04:58:47.758Z,39.64
2022-08-23T05:01:16.192Z,39.74
2022-08-23T05:03:44.512Z,39.60
2022-08-23T05:06:11.277Z,39.51
2022-08-23T05:08:39.699Z,39.29
2022-08-23T05:11:09.415Z,39.07
2022-08-23T05:13:36.455Z,38.50
2022-08-23T05:16:05.180Z,38.72
2022-08-23T05:18:35.020Z,38.26
2022-08-23T05:21:02.006Z,38.28
2022-08-23T05:23:31.831Z,38.02
2022-08-23T05:26:06.337Z,38.23
2022-08-23T05:28:39.868Z,38.12
2022-08-23T05:31:12.119Z,38.22
2022-08-23T05:33:46.683Z,37.83
2022-08-23T05:36:17.428Z,38.08
2022-08-23T05:38:45.632Z,37.99
2022-08-23T05:41:13.090Z,37.70
2022-08-23T05:43:39.802Z,37.91
2022-08-23T05:46:12.646Z,37.52
2022-08-23T05:48:43.276Z,38.17
2022-08-23T05:51:10.009Z,37.72
2022-08-23T05:53:37.403Z,37.64
2022-08-23T05:56:10.570Z,37.61
2022-08-23T05:58:38.030Z,37.63
2022-08-23T06:01:04.745Z,37.18
2022-08-23T06:03:31.737Z,37.00
2022-08-23T06:05:58.588Z,37.33
2022-08-23T06:08:25.750Z,37.36
2022-08-23T06:11:11.716Z,37.47
2022-08-23T06:13:43.786Z,37.04
2022-08-23T06:16:14.986Z,37.08
2022-08-23T06:18:44.416Z,37.13
2022-08-23T06:21:32.317Z,37.05
2022-08-23T06:23:58.827Z,36.98
2022-08-23T06:26:26.979Z,36.62
2022-08-23T06:28:55.484Z,36.23
2022-08-23T06:31:43.655Z,35.94
2022-08-23T06:34:15.443Z,36.04
2022-08-23T06:37:20.359Z,36.53
2022-08-23T06:40:06.566Z,36.48
2022-08-23T06:42:41.054Z,36.30
2022-08-23T06:45:09.086Z,36.22
2022-08-23T06:47:42.496Z,35.58
2022-08-23T06:50:10.176Z,34.48
2022-08-23T06:53:02.414Z,31.94
2022-08-23T06:55:52.437Z,30.46
2022-08-23T06:58:41.963Z,31.48
2022-08-23T07:01:45.063Z,32.16
2022-08-23T07:04:21.190Z,32.88
2022-08-23T07:07:11.328Z,33.47
2022-08-23T07:09:38.768Z,34.34
2022-08-23T07:12:06.590Z,34.11
2022-08-23T07:14:33.729Z,34.63
2022-08-23T07:17:01.235Z,34.61
2022-08-23T07:19:30.052Z,34.02
2022-08-23T07:21:57.662Z,34.53
2022-08-23T07:24:28.154Z,34.97
2022-08-23T07:26:57.784Z,35.13
2022-08-23T07:29:24.780Z,34.94
2022-08-23T07:31:53.022Z,34.93
2022-08-23T07:34:20.976Z,35.03
2022-08-23T07:36:51.144Z,35.05
2022-08-23T07:39:18.139Z,34.63
2022-08-23T07:41:46.913Z,34.99
2022-08-23T07:44:16.320Z,35.17
2022-08-23T07:46:47.337Z,34.98
2022-08-23T07:49:15.404Z,34.73
2022-08-23T07:51:46.411Z,34.78
2022-08-23T07:54:14.102Z,34.85
2022-08-23T07:57:05.060Z,34.67
2022-08-23T07:59:49.902Z,34.99
2022-08-23T08:02:39.641Z,35.08
2022-08-23T08:05:13.621Z,34.74
2022-08-23T08:07:41.513Z,35.04
2022-08-23T08:10:08.633Z,35.25
2022-08-23T08:12:37.079Z,35.26
2022-08-23T08:15:14.161Z,34.98
2022-08-23T08:17:41.062Z,34.52
2022-08-23T08:20:28.990Z,34.36
2022-08-23T08:22:58.609Z,33.79
2022-08-23T08:25:32.841Z,33.70
2022-08-23T08:28:00.122Z,33.82
2022-08-23T08:30:27.524Z,33.43
2022-08-23T08:32:54.166Z,33.36
2022-08-23T08:35:21.320Z,32.91
2022-08-23T08:37:48.336Z,28.74
2022-08-23T08:40:18.022Z,22.68
2022-08-23T08:42:50.819Z,17.60
2022-08-23T08:45:26.338Z,15.74
2022-08-23T08:48:13.369Z,13.82
2022-08-23T08:50:53.368Z,13.33
2022-08-23T08:53:33.316Z,12.25
2022-08-23T08:56:25.149Z,11.63
2022-08-23T08:59:21.179Z,10.31
2022-08-23T09:01:48.714Z,10.81
2022-08-23T09:04:22.484Z,10.10
2022-08-23T09:07:07.863Z,9.92
2022-08-23T09:09:35.537Z,8.78
2022-08-23T09:12:16.347Z,9.60
2022-08-23T09:15:05.988Z,8.41
2022-08-23T09:17:53.151Z,7.90
2022-08-23T09:20:21.442Z,7.90
2022-08-23T09:22:53.962Z,8.29
2022-08-23T09:25:29.155Z,9.04
2022-08-23T09:28:03.074Z,8.10
2022-08-23T09:30:48.790Z,7.88
2022-08-23T09:33:17.683Z,9.27
2022-08-23T09:36:02.011Z,9.96
2022-08-23T09:38:30.059Z,9.53
2022-08-23T09:41:01.584Z,8.26
2022-08-23T09:43:29.137Z,7.76
2022-08-23T09:45:58.473Z,6.73
2022-08-23T09:48:38.419Z,6.89
2022-08-23T09:51:16.858Z,6.49
2022-08-23T09:53:49.511Z,5.68
2022-08-23T09:56:22.385Z,5.79
2022-08-23T09:58:52.574Z,5.61
2022-08-23T10:01:35.412Z,5.56
2022-08-23T10:04:12.595Z,6.46
2022-08-23T10:06:42.077Z,6.89
2022-08-23T10:09:09.698Z,6.57
2022-08-23T10:11:44.877Z,6.36
2022-08-23T10:14:16.344Z,5.95
2022-08-23T10:16:51.328Z,5.61
2022-08-23T10:19:36.735Z,5.12
2022-08-23T10:22:14.725Z,5.24
2022-08-23T10:25:12.997Z,5.59
2022-08-23T10:28:14.758Z,5.25
2022-08-23T10:30:54.803Z,5.45
2022-08-23T10:33:42.676Z,4.74
2022-08-23T10:36:16.706Z,5.29
2022-08-23T10:38:57.876Z,5.08
2022-08-23T10:41:32.155Z,5.64
2022-08-23T10:44:13.590Z,5.39
2022-08-23T10:46:46.338Z,6.05
2022-08-23T10:49:15.306Z,5.62
2022-08-23T10:51:43.429Z,5.51
2022-08-23T10:54:13.472Z,5.79
2022-08-23T10:56:48.882Z,6.18
2022-08-23T10:59:24.015Z,5.81
2022-08-23T11:01:52.502Z,5.50
2022-08-23T11:04:38.576Z,5.72
2022-08-23T11:07:20.754Z,5.75
2022-08-23T11:10:10.026Z,4.33
2022-08-23T11:13:00.105Z,4.58
2022-08-23T11:15:46.314Z,4.14
2022-08-23T11:18:33.875Z,4.75
2022-08-23T11:21:04.663Z,3.83
2022-08-23T11:23:36.064Z,4.56
2022-08-23T11:26:05.684Z,4.32
2022-08-23T11:28:41.152Z,4.22
2022-08-23T11:31:08.567Z,4.66
2022-08-23T11:33:47.332Z,5.47
2022-08-23T11:36:22.328Z,5.07
2022-08-23T11:38:49.703Z,5.55
2022-08-23T11:41:20.526Z,6.22
2022-08-23T11:43:49.367Z,6.38
2022-08-23T11:46:28.002Z,6.77
2022-08-23T11:49:22.051Z,5.84
2022-08-23T11:52:04.793Z,5.91
2022-08-23T11:54:34.528Z,4.83
2022-08-23T11:57:11.547Z,4.88
2022-08-23T11:59:44.224Z,4.56
2022-08-23T12:02:47.923Z,4.49
2022-08-23T12:05:23.493Z,4.49
2022-08-23T12:08:05.733Z,4.22
2022-08-23T12:10:41.451Z,4.52
2022-08-23T12:13:20.412Z,6.31
2022-08-23T12:16:05.968Z,5.55
2022-08-23T12:18:50.917Z,5.31
2022-08-23T12:21:29.249Z,5.13
2022-08-23T12:24:01.335Z,5.36
2022-08-23T12:26:40.014Z,7.18
2022-08-23T12:29:09.664Z,8.37
2022-08-23T12:31:52.133Z,9.73
2022-08-23T12:34:27.980Z,11.83
2022-08-23T12:36:54.593Z,13.09
2022-08-23T12:39:28.768Z,14.03
2022-08-23T12:42:06.939Z,14.05
2022-08-23T12:44:33.980Z,13.60
2022-08-23T12:47:11.719Z,14.38
2022-08-23T12:49:38.362Z,14.87
2022-08-23T12:52:12.359Z,15.04
2022-08-23T12:54:38.858Z,15.38
2022-08-23T12:57:11.861Z,16.18
2022-08-23T13:00:01.465Z,16.37
2022-08-23T13:02:49.268Z,16.30
2022-08-23T13:05:27.232Z,16.35
2022-08-23T13:07:53.971Z,16.50
2022-08-23T13:10:20.768Z,16.85
2022-08-23T13:12:47.427Z,18.47
2022-08-23T13:15:35.711Z,17.64
2022-08-23T13:18:02.781Z,17.26
2022-08-23T13:20:29.526Z,17.30
2022-08-23T13:23:04.189Z,17.16
2022-08-23T13:25:38.562Z,16.17
2022-08-23T13:28:06.923Z,16.50
2022-08-23T13:30:37.601Z,16.67
2022-08-23T13:33:04.282Z,16.76
2022-08-23T13:35:38.605Z,16.58
2022-08-23T13:38:08.209Z,16.94
2022-08-23T13:40:50.149Z,17.44
2022-08-23T13:43:21.620Z,17.32
2022-08-23T13:45:52.675Z,17.27
2022-08-23T13:48:30.562Z,17.70
2022-08-23T13:51:15.884Z,18.37
2022-08-23T13:53:42.562Z,17.45
2022-08-23T13:56:09.210Z,17.25
2022-08-23T13:58:36.180Z,16.88
2022-08-23T14:01:04.087Z,17.01
2022-08-23T14:03:34.170Z,17.18
2022-08-23T14:06:00.674Z,16.79
2022-08-23T14:08:27.271Z,16.86
2022-08-23T14:10:53.964Z,16.76
2022-08-23T14:13:22.968Z,17.42
2022-08-23T14:15:59.000Z,17.80
2022-08-23T14:18:36.539Z,18.43
2022-08-23T14:21:03.592Z,18.46
2022-08-23T14:23:30.308Z,19.22
2022-08-23T14:25:58.351Z,19.11
2022-08-23T14:28:27.051Z,18.66
2022-08-23T14:30:56.607Z,18.28
2022-08-23T14:33:23.405Z,17.81
2022-08-23T14:35:52.287Z,17.97
2022-08-23T14:38:19.151Z,18.50
2022-08-23T14:40:51.793Z,18.22
2022-08-23T14:43:18.788Z,18.48
2022-08-23T14:45:45.525Z,18.26
2022-08-23T14:48:12.232Z,18.17
2022-08-23T14:50:39.609Z,18.50
2022-08-23T14:53:06.896Z,17.85
2022-08-23T14:55:33.672Z,17.47
2022-08-23T14:58:00.363Z,17.75
2022-08-23T15:00:27.055Z,17.38
2022-08-23T15:02:53.740Z,16.87
2022-08-23T15:05:20.363Z,17.38
2022-08-23T15:07:47.129Z,16.87
2022-08-23T15:13:19.483Z,17.29
2022-08-23T15:15:49.241Z,17.47
2022-08-23T15:18:16.576Z,16.75
2022-08-23T15:20:43.216Z,16.25
2022-08-23T15:23:09.992Z,16.62
2022-08-23T15:25:38.522Z,16.97
2022-08-23T15:28:12.159Z,18.24
2022-08-23T15:30:39.836Z,18.76
2022-08-23T15:33:06.706Z,17.42
2022-08-23T15:35:39.896Z,17.97
2022-08-23T15:38:08.411Z,17.33
2022-08-23T15:40:35.231Z,18.33
2022-08-23T15:43:03.150Z,16.99
2022-08-23T15:45:31.269Z,16.94
2022-08-23T15:47:59.082Z,16.72
2022-08-23T15:50:28.349Z,17.08
2022-08-23T15:52:55.103Z,18.96
2022-08-23T15:55:21.730Z,18.38
2022-08-23T15:57:49.807Z,19.27
2022-08-23T16:00:18.072Z,19.36
2022-08-23T16:03:14.432Z,19.48
2022-08-23T16:05:31.997Z,18.14
2022-08-23T16:07:59.459Z,19.00
2022-08-23T16:10:28.269Z,19.15
2022-08-23T16:12:55.273Z,19.95
2022-08-23T16:15:22.323Z,19.72
2022-08-23T16:17:49.895Z,18.66
2022-08-23T16:20:17.249Z,18.08
2022-08-23T16:22:44.146Z,18.76
2022-08-23T16:25:11.245Z,19.04
2022-08-23T16:27:37.996Z,18.54
2022-08-23T16:30:05.619Z,18.54
2022-08-23T16:32:32.339Z,18.58
2022-08-23T16:34:58.917Z,19.00
2022-08-23T16:37:25.636Z,19.89
2022-08-23T16:39:52.282Z,19.44
2022-08-23T16:42:18.932Z,20.13
2022-08-23T16:44:45.525Z,18.93
2022-08-23T16:47:12.814Z,18.64
2022-08-23T16:49:40.179Z,18.55
2022-08-23T16:52:06.971Z,18.68
2022-08-23T16:54:33.586Z,18.66
2022-08-23T16:57:00.548Z,19.73
2022-08-23T16:59:27.118Z,18.91
2022-08-23T17:01:55.989Z,19.01
2022-08-23T17:04:24.638Z,18.62
2022-08-23T17:06:57.244Z,18.97
2022-08-23T17:09:25.089Z,18.99
2022-08-23T17:11:52.913Z,18.63
2022-08-23T17:14:20.103Z,19.13
2022-08-23T17:16:47.260Z,18.94
2022-08-23T17:19:14.262Z,19.65
2022-08-23T17:21:41.967Z,20.47
2022-08-23T17:24:09.517Z,20.46
2022-08-23T17:26:37.320Z,20.73
2022-08-23T17:29:04.990Z,19.91
2022-08-23T17:31:31.777Z,20.25
2022-08-23T17:34:03.162Z,20.43
2022-08-23T17:36:38.507Z,20.38
2022-08-23T17:39:07.745Z,21.06
2022-08-23T17:41:35.431Z,20.98
2022-08-23T17:44:02.638Z,19.83
2022-08-23T17:46:29.284Z,20.46
2022-08-23T17:48:57.653Z,21.25
2022-08-23T17:51:24.711Z,22.63
2022-08-23T17:53:51.267Z,22.94
2022-08-23T17:56:17.865Z,21.88
2022-08-23T17:58:44.626Z,21.66
2022-08-23T18:01:11.406Z,20.93
2022-08-23T18:03:38.969Z,21.66
2022-08-23T18:06:16.236Z,21.13
2022-08-23T18:08:44.377Z,21.55
2022-08-23T18:11:11.041Z,22.40
2022-08-23T18:13:37.901Z,21.48
2022-08-23T18:16:04.944Z,21.22
2022-08-23T18:18:32.371Z,21.83
2022-08-23T18:21:03.192Z,22.49
2022-08-23T18:23:29.776Z,22.11
2022-08-23T18:25:56.431Z,22.63
2022-08-23T18:28:23.615Z,22.75
2022-08-23T18:30:57.589Z,22.22
2022-08-23T18:33:25.378Z,22.35
2022-08-23T18:35:59.233Z,21.52
2022-08-23T18:38:25.792Z,22.19
2022-08-23T18:40:52.615Z,21.37
2022-08-23T18:43:20.719Z,22.13
2022-08-23T18:45:48.334Z,21.48
2022-08-23T18:48:15.097Z,22.20
2022-08-23T18:50:42.496Z,22.31
2022-08-23T18:53:10.849Z,22.47
2022-08-23T18:55:37.405Z,23.14
2022-08-23T18:58:04.595Z,23.30
2022-08-23T19:00:31.579Z,22.88
2022-08-23T19:02:59.091Z,22.89
2022-08-23T19:05:25.623Z,22.69
2022-08-23T19:07:52.229Z,22.83
2022-08-23T19:10:20.587Z,23.21
2022-08-23T19:12:51.677Z,23.19
2022-08-23T19:15:21.192Z,24.05
2022-08-23T19:17:48.030Z,23.39
2022-08-23T19:20:15.400Z,23.19
2022-08-23T19:22:43.327Z,23.68
2022-08-23T19:25:10.062Z,23.97
2022-08-23T19:27:37.080Z,23.62
2022-08-23T19:30:07.579Z,23.30
2022-08-23T19:32:35.224Z,23.75
2022-08-23T19:35:02.276Z,23.63
2022-08-23T19:37:31.046Z,24.45
2022-08-23T19:40:00.549Z,24.24
2022-08-23T19:42:27.222Z,24.17
2022-08-23T19:45:02.654Z,25.07
2022-08-23T19:47:29.226Z,25.04
2022-08-23T19:49:58.727Z,24.12
2022-08-23T19:52:28.602Z,24.61
2022-08-23T19:55:00.584Z,24.53
2022-08-23T19:57:33.551Z,24.95
2022-08-23T20:00:01.265Z,24.58
2022-08-23T20:02:32.252Z,24.27
2022-08-23T20:04:58.884Z,24.47
2022-08-23T20:07:25.410Z,24.29
2022-08-23T20:09:52.089Z,24.37
2022-08-23T20:12:18.952Z,24.89
2022-08-23T20:14:45.977Z,24.74
2022-08-23T20:17:12.636Z,25.03
2022-08-23T20:19:41.101Z,25.30
2022-08-23T20:22:26.145Z,25.21
2022-08-23T20:24:53.346Z,25.17
2022-08-23T20:27:24.157Z,24.79
2022-08-23T20:29:58.854Z,25.28
2022-08-23T20:32:26.377Z,26.05
2022-08-23T20:34:53.235Z,26.63
2022-08-23T20:37:19.735Z,26.25
2022-08-23T20:39:46.410Z,25.76
2022-08-23T20:42:13.200Z,26.67
2022-08-23T20:44:39.869Z,26.73
2022-08-23T20:47:06.583Z,26.13
2022-08-23T20:49:33.195Z,26.77
2022-08-23T20:51:59.782Z,26.42
2022-08-23T20:54:26.474Z,26.30
2022-08-23T20:56:52.985Z,26.33
2022-08-23T20:59:20.245Z,27.29
2022-08-23T21:01:47.018Z,26.77
2022-08-23T21:04:13.811Z,27.04
2022-08-23T21:06:45.132Z,27.21
2022-08-23T21:09:14.834Z,26.94
2022-08-23T21:11:41.414Z,27.72
2022-08-23T21:14:07.988Z,27.26
2022-08-23T21:16:34.613Z,27.33
2022-08-23T21:19:01.259Z,28.26
2022-08-23T21:21:29.134Z,28.09
2022-08-23T21:23:58.944Z,27.72
2022-08-23T21:26:25.987Z,28.30
2022-08-23T21:28:52.772Z,28.15
2022-08-23T21:31:24.317Z,28.18
2022-08-23T21:33:51.384Z,27.59
2022-08-23T21:36:18.780Z,27.08
2022-08-23T21:38:46.206Z,27.50
2022-08-23T21:41:26.979Z,27.33
2022-08-23T21:43:53.545Z,27.48
2022-08-23T21:46:20.162Z,26.68
2022-08-23T21:48:46.867Z,27.15
2022-08-23T21:51:13.407Z,27.24
2022-08-23T21:53:40.111Z,26.80
2022-08-23T21:56:06.852Z,26.63
2022-08-23T21:58:33.533Z,26.57
2022-08-23T22:01:00.280Z,26.54
2022-08-23T22:03:27.319Z,27.03
2022-08-23T22:05:54.275Z,27.26
2022-08-23T22:08:20.984Z,27.19
2022-08-23T22:10:57.160Z,26.80
2022-08-23T22:13:24.795Z,26.89
2022-08-23T22:15:51.345Z,27.40
2022-08-23T22:18:17.872Z,27.02
2022-08-23T22:20:44.415Z,27.31
2022-08-23T22:23:11.387Z,27.07
2022-08-23T22:25:37.979Z,27.05
2022-08-23T22:28:04.737Z,27.41
2022-08-23T22:30:31.499Z,27.04
2022-08-23T22:32:58.200Z,27.69
2022-08-23T22:35:24.977Z,27.28
2022-08-23T22:38:10.522Z,27.45
2022-08-23T22:40:39.514Z,27.65
2022-08-23T22:43:06.321Z,27.64
2022-08-23T22:45:32.875Z,27.67
2022-08-23T22:47:59.507Z,27.55
2022-08-23T22:50:26.055Z,27.30
2022-08-23T22:52:52.716Z,27.81
2022-08-23T22:55:20.070Z,27.74
2022-08-23T22:57:48.367Z,27.38
2022-08-23T23:00:16.204Z,28.10
2022-08-23T23:02:43.287Z,27.38
2022-08-23T23:05:09.959Z,28.13
2022-08-23T23:07:55.299Z,27.44
2022-08-23T23:10:21.847Z,27.92
2022-08-23T23:12:48.461Z,27.67
2022-08-23T23:15:15.019Z,28.38
2022-08-23T23:17:41.605Z,27.97
2022-08-23T23:20:26.695Z,27.88
2022-08-23T23:22:53.314Z,28.17
2022-08-23T23:25:19.989Z,28.27
2022-08-23T23:27:46.531Z,28.51
2022-08-23T23:30:13.232Z,28.10
2022-08-23T23:32:39.852Z,28.39
2022-08-23T23:35:10.134Z,28.38
2022-08-23T23:37:36.803Z,28.25
2022-08-23T23:40:05.223Z,27.66
2022-08-23T23:42:32.011Z,28.22
2022-08-23T23:44:59.562Z,28.32
2022-08-23T23:47:26.142Z,28.26
2022-08-23T23:49:52.743Z,28.26
2022-08-23T23:52:19.338Z,29.06
2022-08-23T23:54:46.393Z,28.67
2022-08-23T23:57:13.026Z,28.18
2022-08-23T23:59:40.951Z,28.63
